Time;durP1;ratioP1;P1;durP2;ratioP2;P2;SDS_P1;SDS_P2;PMS_P1;PMS_P2;Temp;Humidity;BMP_temperature;BMP_pressure;BME280_temperature;BME280_humidity;BME280_pressure;Samples;Min_cycle;Max_cycle;Signal;HPM_P1;HPM_P2
2021/03/20 00:01:54;;;;;;;50.28;23.67;;;;;;;1.64;96.67;97121.25;5043720;28;20514;-60
2021/03/20 00:04:38;;;;;;;49.35;23.48;;;;;;;1.67;96.29;97115.19;5044391;28;20101;-61
2021/03/20 00:07:22;;;;;;;41.30;22.30;;;;;;;1.79;96.09;97112.69;5042288;28;20140;-61
2021/03/20 00:10:09;;;;;;;43.90;22.92;;;;;;;1.72;96.31;97123.25;5043743;28;20506;-59
2021/03/20 00:12:54;;;;;;;42.42;21.75;;;;;;;1.92;95.94;97117.25;5042909;28;20051;-60
2021/03/20 00:15:39;;;;;;;40.78;21.77;;;;;;;1.94;95.17;97125.94;5042763;28;20044;-59
2021/03/20 00:18:26;;;;;;;45.17;23.50;;;;;;;2.04;95.32;97128.41;5043146;28;20557;-59
2021/03/20 00:21:11;;;;;;;46.22;23.98;;;;;;;2.08;95.12;97126.66;5043712;28;20086;-62
2021/03/20 00:23:55;;;;;;;47.83;22.98;;;;;;;2.06;94.72;97128.88;5043054;28;20478;-60
2021/03/20 00:26:39;;;;;;;43.55;22.88;;;;;;;1.62;94.39;97101.66;5043328;28;20098;-62
2021/03/20 00:29:23;;;;;;;43.53;24.17;;;;;;;1.90;94.18;97114.03;5044251;28;20071;-60
2021/03/20 00:32:07;;;;;;;46.42;25.58;;;;;;;1.81;95.33;97094.88;5043653;28;20094;-60
2021/03/20 00:34:52;;;;;;;50.53;25.95;;;;;;;2.04;95.51;97103.84;5044315;28;20056;-60
2021/03/20 00:37:37;;;;;;;47.78;24.73;;;;;;;2.09;94.50;97128.25;5042357;28;20043;-60
2021/03/20 00:40:28;;;;;;;54.97;27.55;;;;;;;2.04;95.01;97098.38;5042919;28;20039;-60
2021/03/20 00:43:12;;;;;;;51.30;27.48;;;;;;;1.97;95.19;97098.00;5043292;28;20307;-60
2021/03/20 00:45:57;;;;;;;58.38;30.13;;;;;;;1.48;94.82;97031.59;5043003;28;20580;-59
2021/03/20 00:48:41;;;;;;;46.05;23.90;;;;;;;1.86;94.36;97092.00;5044019;28;20137;-61
2021/03/20 00:51:26;;;;;;;35.10;19.52;;;;;;;1.83;94.67;97097.28;5041827;28;20108;-60
2021/03/20 00:54:09;;;;;;;39.08;20.98;;;;;;;1.81;95.03;97094.06;5044052;28;20055;-60
2021/03/20 00:56:53;;;;;;;33.80;18.13;;;;;;;1.38;95.20;97041.94;5043004;28;20126;-60
2021/03/20 00:59:38;;;;;;;33.55;18.67;;;;;;;1.62;94.87;97057.97;5042317;28;20676;-59
2021/03/20 01:02:22;;;;;;;40.33;20.08;;;;;;;1.91;94.62;97091.88;5041720;28;20124;-60
2021/03/20 01:05:08;;;;;;;36.80;20.52;;;;;;;2.01;93.58;97090.81;5043076;28;20415;-60
2021/03/20 01:07:53;;;;;;;40.20;21.67;;;;;;;1.97;92.76;97084.34;5042318;28;20111;-62
2021/03/20 01:10:37;;;;;;;41.40;21.67;;;;;;;1.37;92.78;97004.88;5043471;28;20171;-59
2021/03/20 01:13:21;;;;;;;42.53;23.17;;;;;;;1.40;93.57;97013.25;5043785;28;20044;-60
2021/03/20 01:16:05;;;;;;;37.70;21.40;;;;;;;1.05;93.03;96929.59;5043354;28;20044;-60
2021/03/20 01:18:50;;;;;;;40.88;21.05;;;;;;;1.92;93.92;97084.47;5044004;28;20048;-59
2021/03/20 01:21:34;;;;;;;34.10;19.23;;;;;;;1.79;94.42;97090.84;5041675;28;20122;-60
2021/03/20 01:24:18;;;;;;;36.70;19.65;;;;;;;1.81;94.59;97092.13;5043043;28;20134;-61
2021/03/20 01:27:03;;;;;;;35.53;18.73;;;;;;;1.28;94.66;97048.47;5042684;28;20063;-62
2021/03/20 01:29:47;;;;;;;31.17;17.73;;;;;;;1.77;94.13;97104.78;5043186;28;20152;-59
2021/03/20 01:32:31;;;;;;;31.90;16.35;;;;;;;1.63;94.26;97084.19;5041908;28;20086;-62
2021/03/20 01:35:15;;;;;;;32.13;16.73;;;;;;;1.65;94.75;97090.09;5042574;28;20075;-58
2021/03/20 01:38:01;;;;;;;30.17;16.95;;;;;;;0.90;95.27;96995.41;5042113;28;21022;-59
2021/03/20 01:41:07;;;;;;;44.17;20.50;;;;;;;1.52;96.13;97087.16;5041531;28;20051;-60
2021/03/20 01:43:52;;;;;;;45.15;23.98;;;;;;;1.68;95.02;97103.13;5043379;28;20102;-60
2021/03/20 01:46:42;;;;;;;51.92;28.17;;;;;;;1.72;94.88;97107.69;5042077;28;20094;-59
2021/03/20 01:49:37;;;;;;;39.70;21.38;;;;;;;1.76;94.01;97118.75;5041782;28;20080;-60
2021/03/20 01:52:29;;;;;;;41.38;22.02;;;;;;;0.97;93.80;96993.06;5042350;28;20435;-59
2021/03/20 01:55:17;;;;;;;45.13;22.65;;;;;;;1.69;95.10;97118.41;5045343;28;20040;-58
2021/03/20 01:58:04;;;;;;;48.17;25.25;;;;;;;1.62;95.64;97096.19;5046695;28;20088;-60
2021/03/20 02:00:49;;;;;;;51.95;24.23;;;;;;;1.27;95.19;97044.13;5045264;28;20083;-58
2021/03/20 02:03:35;;;;;;;40.75;19.63;;;;;;;1.21;93.87;97009.91;5046591;28;20102;-59
2021/03/20 02:06:20;;;;;;;42.83;22.08;;;;;;;1.79;94.24;97101.78;5044697;28;20052;-59
2021/03/20 02:09:08;;;;;;;42.50;22.83;;;;;;;1.58;94.31;97051.53;5059565;28;20415;-59
2021/03/20 02:12:01;;;;;;;37.05;20.42;;;;;;;1.76;94.21;97097.72;5046293;28;20044;-59
2021/03/20 02:15:07;;;;;;;39.88;20.52;;;;;;;1.26;94.68;97050.72;5045419;28;20179;-60
2021/03/20 02:18:20;;;;;;;46.60;22.95;;;;;;;1.60;95.04;97093.00;5046664;28;20067;-60
2021/03/20 02:21:14;;;;;;;34.42;19.38;;;;;;;1.49;95.52;97087.78;5045919;28;20095;-57
2021/03/20 02:24:25;;;;;;;36.78;19.70;;;;;;;1.49;95.63;97098.69;5044871;28;20048;-59
2021/03/20 02:27:48;;;;;;;34.75;18.13;;;;;;;-1.60;95.80;96632.69;5044320;28;20044;-58
2021/03/20 02:30:58;;;;;;;33.95;17.83;;;;;;;1.44;96.50;97096.09;5044319;28;20114;-59
2021/03/20 02:34:00;;;;;;;35.70;19.45;;;;;;;1.44;96.14;97101.53;5045949;28;20135;-58
2021/03/20 02:37:06;;;;;;;40.70;20.73;;;;;;;1.47;94.33;97100.91;5044537;28;20613;-59
2021/03/20 02:40:18;;;;;;;50.15;24.20;;;;;;;1.53;94.39;97099.66;5045017;28;20048;-59
2021/03/20 02:43:27;;;;;;;60.03;30.38;;;;;;;1.45;95.25;97092.22;5045400;28;20107;-59
2021/03/20 02:46:38;;;;;;;62.83;33.72;;;;;;;1.53;95.08;97105.13;5044978;28;20087;-59
2021/03/20 02:49:34;;;;;;;47.63;26.27;;;;;;;1.37;95.12;97100.38;5045904;28;20052;-58
2021/03/20 02:52:44;;;;;;;46.55;27.42;;;;;;;1.38;95.64;97102.78;5045113;28;20064;-60
2021/03/20 02:55:38;;;;;;;56.92;30.65;;;;;;;1.22;95.15;97071.53;5043938;28;20055;-59
2021/03/20 02:58:28;;;;;;;53.97;30.05;;;;;;;1.35;95.48;97092.50;5045967;28;20044;-59
2021/03/20 03:01:16;;;;;;;48.28;25.70;;;;;;;1.18;95.86;97073.28;5045108;28;20099;-59
2021/03/20 03:04:01;;;;;;;46.05;24.45;;;;;;;1.15;96.11;97084.81;5044264;28;20075;-58
2021/03/20 03:07:20;;;;;;;42.65;23.70;;;;;;;0.90;95.47;97039.03;5044540;28;20110;-60
2021/03/20 03:10:12;;;;;;;42.80;22.45;;;;;;;1.30;95.80;97111.72;5044804;28;20102;-59
2021/03/20 03:13:08;;;;;;;36.88;20.92;;;;;;;1.23;96.39;97111.31;5043854;28;20443;-59
2021/03/20 03:16:01;;;;;;;44.53;20.48;;;;;;;1.03;96.96;97117.25;5043821;28;20044;-58
2021/03/20 03:18:51;;;;;;;40.67;21.10;;;;;;;0.98;96.13;97087.38;5044121;28;20051;-60
2021/03/20 03:21:40;;;;;;;38.95;22.98;;;;;;;-0.28;96.12;96901.44;5043642;28;20101;-59
2021/03/20 03:24:27;;;;;;;43.42;22.05;;;;;;;0.91;96.29;97092.47;5045182;28;20074;-59
2021/03/20 03:27:15;;;;;;;42.15;22.75;;;;;;;1.07;95.79;97133.81;5042715;28;20402;-60
2021/03/20 03:29:59;;;;;;;45.40;24.02;;;;;;;1.00;96.34;97156.06;5043841;28;20183;-59
2021/03/20 03:32:47;;;;;;;45.42;23.80;;;;;;;0.75;95.72;97065.84;5045047;28;20147;-58
2021/03/20 03:35:36;;;;;;;49.13;24.15;;;;;;;1.06;95.30;97116.63;5044464;28;20087;-61
2021/03/20 03:38:43;;;;;;;46.90;22.30;;;;;;;0.53;95.19;97047.53;5045089;28;20418;-59
2021/03/20 03:41:37;;;;;;;42.47;22.92;;;;;;;0.92;96.03;97104.97;5042433;28;20258;-60
2021/03/20 03:44:21;;;;;;;75.05;31.85;;;;;;;0.93;96.32;97114.75;5044905;28;20070;-59
2021/03/20 03:47:05;;;;;;;71.50;30.70;;;;;;;0.89;96.44;97126.56;5044124;28;20122;-59
2021/03/20 03:49:52;;;;;;;91.35;44.13;;;;;;;0.78;97.40;97119.75;5044369;28;20106;-59
2021/03/20 03:52:36;;;;;;;60.20;26.33;;;;;;;0.74;97.77;97111.38;5044122;28;20044;-60
2021/03/20 03:55:21;;;;;;;49.88;23.70;;;;;;;0.41;98.49;97071.75;5043827;28;20569;-59
2021/03/20 03:58:20;;;;;;;42.05;20.73;;;;;;;0.69;98.35;97106.03;5044730;28;20090;-60
2021/03/20 04:01:26;;;;;;;44.42;22.25;;;;;;;0.67;98.74;97100.09;5044518;28;20044;-58
2021/03/20 04:04:33;;;;;;;44.22;22.33;;;;;;;0.66;99.22;97106.66;5043404;28;20083;-58
2021/03/20 04:07:20;;;;;;;50.53;24.08;;;;;;;0.63;99.54;97118.16;5041567;28;20048;-58
2021/03/20 04:10:13;;;;;;;49.20;25.15;;;;;;;-2.40;98.29;96620.69;5045156;28;20068;-58
2021/03/20 04:13:13;;;;;;;41.50;21.40;;;;;;;0.78;99.23;97115.09;5064329;28;20121;-58
2021/03/20 04:16:06;;;;;;;43.60;22.70;;;;;;;0.86;98.08;97106.19;5063602;28;20153;-58
2021/03/20 04:19:17;;;;;;;65.22;33.05;;;;;;;0.82;97.18;97110.63;5064463;28;20044;-59
2021/03/20 04:22:07;;;;;;;69.25;33.92;;;;;;;0.89;97.99;97097.41;5062670;28;20097;-59
2021/03/20 04:25:00;;;;;;;54.92;28.23;;;;;;;0.84;97.89;97094.78;5062507;28;20120;-59
2021/03/20 04:27:51;;;;;;;53.80;26.27;;;;;;;1.02;97.48;97104.75;5063880;28;20404;-59
2021/03/20 04:30:38;;;;;;;46.22;24.75;;;;;;;0.86;96.93;97089.84;5062917;28;20039;-61
2021/03/20 04:33:29;;;;;;;47.00;22.90;;;;;;;0.95;96.88;97098.91;5064094;28;20064;-61
2021/03/20 04:36:30;;;;;;;47.53;23.85;;;;;;;1.00;96.21;97117.06;5062127;28;20034;-59
2021/03/20 04:39:19;;;;;;;43.63;23.90;;;;;;;1.13;96.44;97122.50;5062401;28;20181;-59
2021/03/20 04:42:04;;;;;;;44.20;23.90;;;;;;;1.20;95.63;97127.53;5063065;28;20120;-60
2021/03/20 04:44:48;;;;;;;58.53;28.77;;;;;;;1.25;93.87;97130.94;5063500;28;20814;-59
2021/03/20 04:47:36;;;;;;;78.05;41.30;;;;;;;1.20;95.53;97125.59;5062200;28;20492;-59
2021/03/20 04:50:25;;;;;;;70.65;37.38;;;;;;;1.12;96.16;97109.94;5063063;28;20067;-59
2021/03/20 04:53:13;;;;;;;71.82;35.88;;;;;;;0.81;95.93;97049.06;5063629;28;20446;-59
2021/03/20 04:56:04;;;;;;;54.50;26.73;;;;;;;1.41;94.82;97129.44;5063196;28;20102;-58
2021/03/20 04:58:57;;;;;;;44.80;25.02;;;;;;;1.53;94.39;97154.25;5063675;28;20040;-59
2021/03/20 05:01:58;;;;;;;55.75;28.80;;;;;;;1.47;94.31;97132.88;5062266;28;20055;-59
2021/03/20 05:04:46;;;;;;;57.45;33.22;;;;;;;1.32;94.19;97087.66;5064208;28;20127;-59
2021/03/20 05:07:32;;;;;;;72.50;38.10;;;;;;;1.69;93.56;97132.06;5062064;28;20043;-60
2021/03/20 05:10:32;;;;;;;72.43;36.70;;;;;;;1.42;92.71;97081.94;5058211;28;20044;-60
2021/03/20 05:13:30;;;;;;;81.03;41.17;;;;;;;1.76;91.74;97126.94;5043409;28;20052;-62
2021/03/20 05:16:17;;;;;;;77.47;39.88;;;;;;;1.92;92.33;97150.03;5042454;28;20083;-58
2021/03/20 05:19:03;;;;;;;75.25;39.65;;;;;;;2.08;92.44;97143.03;5043592;28;20040;-59
2021/03/20 05:21:52;;;;;;;77.80;40.42;;;;;;;2.21;92.46;97147.63;5041777;28;20052;-59
2021/03/20 05:24:38;;;;;;;92.72;51.47;;;;;;;2.37;92.09;97146.09;5043120;28;20368;-60
2021/03/20 05:27:26;;;;;;;85.40;49.50;;;;;;;2.53;90.02;97139.09;5041591;28;20083;-59
2021/03/20 05:30:12;;;;;;;98.97;46.97;;;;;;;2.58;89.14;97136.19;5045275;28;20048;-61
2021/03/20 05:32:56;;;;;;;97.35;45.72;;;;;;;2.77;88.59;97134.00;5046907;28;20122;-60
2021/03/20 05:35:40;;;;;;;73.60;36.33;;;;;;;2.48;85.82;97077.13;5046499;28;20040;-60
2021/03/20 05:38:25;;;;;;;79.07;38.92;;;;;;;2.92;85.60;97130.81;5047014;28;20106;-58
2021/03/20 05:41:25;;;;;;;79.43;36.75;;;;;;;3.00;85.74;97125.34;5046346;28;20095;-58
2021/03/20 05:44:45;;;;;;;80.40;37.10;;;;;;;2.92;85.39;97119.88;5046884;28;20060;-59
2021/03/20 05:47:51;;;;;;;72.65;38.78;;;;;;;2.75;85.76;97085.09;5046461;28;20040;-59
2021/03/20 05:50:35;;;;;;;70.85;37.90;;;;;;;3.22;84.60;97140.03;5046024;28;20035;-59
2021/03/20 05:53:38;;;;;;;70.07;39.88;;;;;;;3.44;84.82;97137.94;5046612;28;20064;-59
2021/03/20 05:56:42;;;;;;;61.97;34.67;;;;;;;3.56;83.57;97138.09;5046001;28;20048;-59
2021/03/20 05:59:32;;;;;;;35.85;20.50;;;;;;;3.49;82.88;97135.06;5046476;28;20423;-58
2021/03/20 06:02:37;;;;;;;50.40;27.20;;;;;;;3.50;82.67;97136.66;5046425;28;20573;-59
2021/03/20 06:05:46;;;;;;;57.53;33.45;;;;;;;3.69;83.02;97134.38;5046006;28;20126;-60
2021/03/20 06:08:46;;;;;;;64.97;34.58;;;;;;;0.80;82.65;96747.63;5052937;28;20135;-63
2021/03/20 06:11:45;;;;;;;67.32;37.60;;;;;;;3.62;83.16;97134.06;5051678;28;20043;-63
2021/03/20 06:14:34;;;;;;;50.78;29.95;;;;;;;2.98;83.01;97052.94;5048170;28;20502;-60
2021/03/20 06:17:38;;;;;;;64.78;37.55;;;;;;;3.68;83.23;97149.22;5054118;28;20092;-60
2021/03/20 06:21:02;;;;;;;56.17;32.60;;;;;;;3.86;83.12;97144.50;5045656;28;20110;-58
2021/03/20 06:24:20;;;;;;;48.15;27.35;;;;;;;3.96;82.72;97145.00;5057874;28;20059;-63
2021/03/20 06:27:11;;;;;;;40.33;24.63;;;;;;;3.93;81.26;97137.41;5058994;28;20051;-61
2021/03/20 06:29:59;;;;;;;49.28;30.25;;;;;;;3.20;81.30;97000.78;5045727;28;20118;-61
2021/03/20 06:32:50;;;;;;;41.15;24.98;;;;;;;4.16;81.49;97149.78;5058450;28;20055;-61
2021/03/20 06:35:40;;;;;;;42.15;25.63;;;;;;;4.29;82.17;97154.25;5057827;28;20123;-64
2021/03/20 06:38:32;;;;;;;42.70;23.20;;;;;;;4.36;82.67;97154.53;5051019;28;20044;-61
2021/03/20 06:41:39;;;;;;;40.60;23.90;;;;;;;4.62;81.88;97168.97;5045830;28;20047;-59
2021/03/20 06:44:30;;;;;;;45.47;25.55;;;;;;;4.68;80.98;97166.06;5046203;28;20047;-60
2021/03/20 06:47:26;;;;;;;56.28;34.00;;;;;;;4.46;80.67;97076.59;5047028;28;20494;-59
2021/03/20 06:50:21;;;;;;;80.55;48.75;;;;;;;5.18;79.41;97162.25;5063062;28;20534;-64
2021/03/20 06:53:08;;;;;;;64.68;39.17;;;;;;;4.46;76.75;97006.09;5057286;28;20075;-62
2021/03/20 06:55:58;;;;;;;58.30;38.85;;;;;;;5.94;76.48;97160.06;5046088;28;20052;-63
2021/03/20 06:58:42;;;;;;;54.30;33.72;;;;;;;6.28;74.47;97158.88;5049088;28;20142;-61
2021/03/20 07:01:39;;;;;;;50.00;28.83;;;;;;;6.09;72.23;97156.66;5044474;28;20040;-62
2021/03/20 07:04:38;;;;;;;58.08;35.53;;;;;;;6.65;71.21;97153.13;5063219;28;20094;-64
2021/03/20 07:07:40;;;;;;;55.38;34.47;;;;;;;6.54;72.26;97115.41;5063988;28;20034;-63
2021/03/20 07:10:32;;;;;;;96.68;53.50;;;;;;;7.26;69.81;97157.50;5061484;28;20048;-59
2021/03/20 07:13:24;;;;;;;57.33;34.97;;;;;;;7.58;69.56;97153.78;5057769;28;20035;-63
2021/03/20 07:16:09;;;;;;;24.73;17.23;;;;;;;6.94;69.17;97144.66;5059831;28;20043;-61
2021/03/20 07:19:13;;;;;;;28.83;18.02;;;;;;;6.13;74.42;97124.59;5058739;28;20093;-64
2021/03/20 07:21:57;;;;;;;50.22;27.80;;;;;;;6.95;74.10;97149.03;5046492;28;20040;-65
2021/03/20 07:24:44;;;;;;;47.40;26.70;;;;;;;7.25;71.64;97095.28;5056508;28;20048;-64
2021/03/20 07:27:31;;;;;;;49.05;29.20;;;;;;;8.11;69.72;97160.03;5051556;28;20079;-61
2021/03/20 07:30:33;;;;;;;46.97;28.48;;;;;;;8.22;66.91;97144.59;5057215;28;20423;-63
2021/03/20 07:33:32;;;;;;;36.50;23.33;;;;;;;8.44;66.44;97136.53;5044103;28;20564;-62
2021/03/20 07:36:18;;;;;;;37.15;23.50;;;;;;;8.16;67.54;97145.97;5044304;28;20035;-63
2021/03/20 07:39:15;;;;;;;53.42;31.40;;;;;;;8.40;66.40;97140.34;5045147;28;20474;-65
2021/03/20 07:42:02;;;;;;;31.35;20.77;;;;;;;8.37;65.33;97138.31;5046512;28;20125;-60
2021/03/20 07:44:55;;;;;;;29.58;21.55;;;;;;;8.07;64.91;97065.31;5051560;28;20086;-63
2021/03/20 07:47:45;;;;;;;31.02;20.80;;;;;;;7.85;65.07;97076.94;5050996;28;20143;-61
2021/03/20 07:50:31;;;;;;;25.80;17.92;;;;;;;6.97;71.41;97138.47;5046166;28;20118;-61
2021/03/20 07:53:18;;;;;;;26.50;18.38;;;;;;;7.68;68.40;97142.25;5053156;28;20049;-59
2021/03/20 07:56:12;;;;;;;25.25;16.17;;;;;;;7.57;69.62;97143.88;5044960;28;20149;-60
2021/03/20 07:59:20;;;;;;;24.73;16.15;;;;;;;7.57;69.43;97141.13;5044542;28;20140;-60
2021/03/20 08:02:05;;;;;;;25.40;16.33;;;;;;;6.98;70.50;97101.53;5048120;28;20043;-60
2021/03/20 08:04:57;;;;;;;23.60;16.25;;;;;;;7.27;70.10;97097.69;5057928;28;20517;-59
2021/03/20 08:07:47;;;;;;;23.08;15.13;;;;;;;7.19;69.86;97157.25;5062167;28;20253;-61
2021/03/20 08:10:33;;;;;;;16.88;12.00;;;;;;;7.09;69.07;97157.75;5048163;28;20128;-61
2021/03/20 08:13:27;;;;;;;17.83;12.23;;;;;;;6.98;70.87;97151.09;5052929;28;20097;-62
2021/03/20 08:16:15;;;;;;;18.13;12.93;;;;;;;6.60;71.71;97092.81;5061885;28;20265;-62
2021/03/20 08:18:59;;;;;;;18.00;12.93;;;;;;;7.05;71.41;97151.31;5063854;28;20358;-65
2021/03/20 08:21:46;;;;;;;19.30;12.82;;;;;;;8.05;68.14;97153.13;5057765;28;20063;-60
2021/03/20 08:24:50;;;;;;;19.08;11.90;;;;;;;7.75;69.30;97158.19;5054763;28;20048;-60
2021/03/20 08:27:49;;;;;;;20.48;14.05;;;;;;;7.93;68.49;97158.72;5054153;28;20526;-61
2021/03/20 08:30:39;;;;;;;13.80;10.02;;;;;;;7.66;67.10;97144.56;5052569;28;20064;-63
2021/03/20 08:33:36;;;;;;;13.10;9.55;;;;;;;6.69;67.67;97115.50;5050834;28;20072;-60
2021/03/20 08:36:49;;;;;;;20.95;13.85;;;;;;;7.41;69.25;97143.00;5045462;28;20169;-62
2021/03/20 08:39:57;;;;;;;13.68;9.82;;;;;;;7.62;65.38;97148.34;5035156;28;20043;-59
2021/03/20 08:43:07;;;;;;;21.63;11.90;;;;;;;7.24;69.80;97143.25;5044529;28;20170;-62
2021/03/20 08:46:02;;;;;;;17.83;12.45;;;;;;;7.05;67.88;97059.63;5045395;28;20530;-60
2021/03/20 08:48:46;;;;;;;15.25;11.55;;;;;;;8.26;65.62;97145.50;5043621;28;20474;-62
2021/03/20 08:51:52;;;;;;;14.60;10.02;;;;;;;8.74;61.63;97139.69;5043869;28;20499;-60
2021/03/20 08:54:42;;;;;;;36.95;17.20;;;;;;;8.99;62.46;97132.81;5042460;28;20083;-62
2021/03/20 08:57:36;;;;;;;13.35;9.45;;;;;;;8.04;61.44;97144.09;5046068;28;20039;-62
2021/03/20 09:01:11;;;;;;;9.30;7.50;;;;;;;7.68;62.62;97136.72;5051936;28;20055;-61
2021/03/20 09:04:02;;;;;;;10.18;7.65;;;;;;;7.72;62.39;97137.66;5032793;28;20059;-63
2021/03/20 09:06:54;;;;;;;14.82;9.48;;;;;;;7.57;62.54;97097.03;5062440;28;20043;-61
2021/03/20 09:09:45;;;;;;;9.07;6.40;;;;;;;7.55;61.94;97132.44;5067028;28;20564;-60
2021/03/20 09:12:35;;;;;;;6.82;4.65;;;;;;;7.19;61.65;97124.22;5057062;28;20047;-61
2021/03/20 09:15:26;;;;;;;10.93;8.10;;;;;;;7.20;61.91;97136.03;5055176;28;20034;-62
2021/03/20 09:18:14;;;;;;;19.38;11.82;;;;;;;6.56;62.59;96940.53;5058371;28;20040;-60
2021/03/20 09:21:04;;;;;;;11.60;7.45;;;;;;;8.35;58.76;97133.13;5063508;28;20104;-57
2021/03/20 09:23:50;;;;;;;10.15;8.13;;;;;;;8.49;58.57;97140.97;5059221;28;20102;-61
2021/03/20 09:26:50;;;;;;;17.02;10.20;;;;;;;9.19;58.98;97140.00;5047263;28;20043;-58
2021/03/20 09:29:35;;;;;;;12.57;9.80;;;;;;;8.98;57.35;97067.66;5058704;28;20411;-62
2021/03/20 09:32:19;;;;;;;13.07;9.75;;;;;;;10.07;54.55;97137.25;5054035;28;20086;-58
2021/03/20 09:35:19;;;;;;;14.73;10.02;;;;;;;10.41;53.25;97133.59;5066265;28;20105;-58
2021/03/20 09:38:03;;;;;;;12.15;9.07;;;;;;;10.19;53.53;97139.09;5066969;28;20055;-59
2021/03/20 09:40:52;;;;;;;13.48;10.48;;;;;;;10.14;53.44;97142.94;5063387;28;20044;-58
2021/03/20 09:43:54;;;;;;;15.40;10.48;;;;;;;10.33;52.33;97142.94;5066638;28;20047;-58
2021/03/20 09:46:38;;;;;;;14.32;8.60;;;;;;;10.48;51.51;97142.03;5059338;28;20508;-59
2021/03/20 09:49:22;;;;;;;;;;;;;;;10.23;52.80;97146.28;5047658;28;20470;-59
2021/03/20 09:52:08;;;;;;;17.70;12.18;;;;;;;10.35;51.54;97148.88;5047139;28;20299;-59
2021/03/20 09:54:52;;;;;;;13.40;10.40;;;;;;;10.66;51.19;97137.63;5046506;28;20087;-57
2021/03/20 09:57:36;;;;;;;25.20;15.35;;;;;;;10.95;50.05;97140.88;5046179;28;20047;-58
2021/03/20 10:00:47;;;;;;;24.58;12.85;;;;;;;10.20;50.93;97141.47;5045864;28;20133;-57
2021/03/20 10:03:42;;;;;;;15.05;10.10;;;;;;;9.88;51.55;97140.00;5046071;28;20121;-59
2021/03/20 10:06:37;;;;;;;27.50;16.92;;;;;;;9.54;52.59;97129.78;5045269;28;20075;-58
2021/03/20 10:09:23;;;;;;;32.92;21.13;;;;;;;9.86;52.63;97130.47;5046000;28;20060;-59
2021/03/20 10:12:13;;;;;;;18.52;12.32;;;;;;;9.62;52.54;97080.94;5044661;28;20111;-60
2021/03/20 10:15:00;;;;;;;21.15;12.27;;;;;;;9.88;52.33;97117.84;5044740;28;20077;-59
2021/03/20 10:18:06;;;;;;;23.40;13.60;;;;;;;9.56;52.04;97121.94;5044909;28;20047;-59
2021/03/20 10:20:56;;;;;;;98.05;55.05;;;;;;;9.68;52.83;97113.47;5044530;28;20044;-60
2021/03/20 10:23:58;;;;;;;283.58;122.28;;;;;;;9.84;52.29;97117.00;5056439;28;20521;-58
2021/03/20 10:26:51;;;;;;;46.17;23.83;;;;;;;9.96;51.39;97114.06;5064864;28;20044;-59
2021/03/20 10:29:38;;;;;;;13.23;9.63;;;;;;;10.19;51.27;97128.81;5045048;28;20206;-63
2021/03/20 10:32:24;;;;;;;13.98;12.05;;;;;;;9.93;51.70;97109.25;5061642;28;20094;-60
2021/03/20 10:35:09;;;;;;;12.20;9.90;;;;;;;9.58;51.95;97086.38;5063090;28;20035;-59
2021/03/20 10:37:54;;;;;;;17.02;13.55;;;;;;;10.24;52.55;97098.03;5052430;28;20051;-59
2021/03/20 10:40:38;;;;;;;25.58;17.25;;;;;;;10.30;51.40;97101.31;5059998;28;20089;-59
2021/03/20 10:43:23;;;;;;;29.38;16.70;;;;;;;9.88;50.80;97007.19;5057195;28;20063;-58
2021/03/20 10:46:07;;;;;;;21.42;14.48;;;;;;;10.08;50.48;97042.00;5057028;28;20146;-59
2021/03/20 10:48:53;;;;;;;17.70;10.23;;;;;;;10.68;50.03;97107.56;5049154;28;20993;-58
2021/03/20 10:51:40;;;;;;;16.40;10.45;;;;;;;9.93;48.73;97026.25;5058993;28;20498;-59
2021/03/20 10:54:33;;;;;;;9.35;8.32;;;;;;;10.95;48.17;97099.31;5059904;28;20079;-57
2021/03/20 10:57:21;;;;;;;;;;;;;;;11.20;47.41;97095.75;5048291;28;20079;-59
2021/03/20 11:00:18;;;;;;;9.88;8.30;;;;;;;10.90;48.58;97088.53;5064641;28;19932;-59
2021/03/20 11:03:14;;;;;;;8.70;7.43;;;;;;;9.52;50.20;97087.84;5053344;28;20106;-59
2021/03/20 11:06:08;;;;;;;11.13;9.15;;;;;;;10.20;50.17;97080.59;5064539;28;20052;-60
2021/03/20 11:09:29;;;;;;;8.13;7.33;;;;;;;10.95;47.27;97071.59;5062455;28;20051;-62
2021/03/20 11:12:28;;;;;;;20.58;13.25;;;;;;;10.91;48.72;97077.06;5008103;28;20283;-59
2021/03/20 11:15:24;;;;;;;10.02;7.75;;;;;;;10.62;48.19;97064.72;5058889;28;20546;-61
2021/03/20 11:18:23;;;;;;;18.23;11.02;;;;;;;9.91;50.96;96991.84;5061382;28;20503;-61
2021/03/20 11:21:20;;;;;;;15.73;11.02;;;;;;;9.60;51.18;96998.34;5055399;28;20058;-62
2021/03/20 11:24:16;;;;;;;13.23;9.05;;;;;;;9.85;51.11;97074.31;5052999;28;20047;-62
2021/03/20 11:27:22;;;;;;;20.75;14.18;;;;;;;9.77;51.17;97072.56;5051362;28;20040;-62
2021/03/20 11:30:13;;;;;;;24.02;15.15;;;;;;;9.93;52.16;97067.75;5057587;28;20106;-58
2021/03/20 11:33:00;;;;;;;13.63;10.15;;;;;;;10.10;52.09;97053.50;5055629;28;20518;-61
2021/03/20 11:35:47;;;;;;;21.75;13.07;;;;;;;10.35;51.46;97057.50;5046853;28;20367;-59
2021/03/20 11:38:33;;;;;;;13.50;9.93;;;;;;;9.67;50.87;96917.50;5061736;28;20508;-58
2021/03/20 11:41:22;;;;;;;11.65;10.13;;;;;;;10.72;49.94;97051.44;5046679;28;20079;-61
2021/03/20 11:44:19;;;;;;;12.75;10.15;;;;;;;10.71;49.80;97039.56;5054424;28;20083;-60
2021/03/20 11:47:05;;;;;;;13.93;10.82;;;;;;;10.48;50.72;97013.81;5049370;28;20047;-61
2021/03/20 11:49:52;;;;;;;15.63;9.63;;;;;;;10.64;50.29;97045.78;5051272;28;20124;-58
2021/03/20 11:53:00;;;;;;;11.50;9.77;;;;;;;10.61;49.17;96988.34;5048174;28;20043;-58
2021/03/20 11:55:44;;;;;;;17.05;12.20;;;;;;;10.77;49.83;97031.72;5050101;28;20050;-63
2021/03/20 11:58:29;;;;;;;;;;;;;;;11.03;48.80;97023.41;5056979;28;20214;-57
2021/03/20 12:01:30;;;;;;;15.63;10.27;;;;;;;10.04;50.91;96955.31;5044406;28;19975;-59
2021/03/20 12:04:17;;;;;;;13.07;9.98;;;;;;;10.62;49.78;97025.94;5044206;28;20039;-61
2021/03/20 12:07:22;;;;;;;16.92;12.27;;;;;;;10.56;51.38;97021.88;5045657;28;20047;-58
2021/03/20 12:10:23;;;;;;;17.20;12.32;;;;;;;9.43;53.78;96978.63;5048161;28;20047;-61
2021/03/20 12:13:07;;;;;;;19.50;14.00;;;;;;;9.96;53.51;96967.41;5054063;28;20124;-60
2021/03/20 12:15:54;;;;;;;14.88;11.55;;;;;;;10.22;51.88;97017.34;5052625;28;20506;-60
2021/03/20 12:18:38;;;;;;;14.95;11.68;;;;;;;10.50;51.63;96997.66;5053708;28;20577;-61
2021/03/20 12:21:22;;;;;;;12.32;9.63;;;;;;;11.00;49.43;96990.91;5066372;28;20044;-63
2021/03/20 12:24:12;;;;;;;11.52;9.35;;;;;;;10.55;49.40;96962.13;5077201;28;20097;-61
2021/03/20 12:26:57;;;;;;;10.70;8.32;;;;;;;11.20;48.19;97009.00;5055496;28;20521;-60
2021/03/20 12:29:44;;;;;;;11.98;10.45;;;;;;;10.98;48.85;96982.16;5046358;28;20106;-60
2021/03/20 12:32:39;;;;;;;9.98;8.95;;;;;;;10.97;47.49;97005.50;5046856;28;20427;-63
2021/03/20 12:35:29;;;;;;;13.75;10.23;;;;;;;11.14;48.72;96996.66;5043518;28;20534;-61
2021/03/20 12:38:32;;;;;;;12.18;9.23;;;;;;;11.35;48.17;97003.28;5052219;28;20074;-58
2021/03/20 12:41:18;;;;;;;20.55;14.20;;;;;;;10.92;48.73;97006.63;5043363;28;20051;-57
2021/03/20 12:44:10;;;;;;;13.05;10.15;;;;;;;10.93;48.96;96988.00;5052631;28;20545;-55
2021/03/20 12:47:04;;;;;;;15.65;12.23;;;;;;;10.81;49.03;96971.63;5053351;28;20078;-57
2021/03/20 12:49:48;;;;;;;16.70;12.70;;;;;;;10.22;49.67;96872.59;5054557;28;20098;-55
2021/03/20 12:52:37;;;;;;;18.67;13.73;;;;;;;10.93;51.22;96974.97;5048452;28;20371;-55
2021/03/20 12:55:21;;;;;;;13.80;11.27;;;;;;;10.51;51.15;96961.28;5042556;28;20098;-57
2021/03/20 12:58:04;;;;;;;;;;;;;;;10.34;52.10;96978.41;5044097;28;20084;-56
2021/03/20 13:00:49;;;;;;;16.45;12.05;;;;;;;10.24;52.10;96981.78;5042774;28;20357;-56
2021/03/20 13:03:34;;;;;;;13.40;9.82;;;;;;;10.32;51.50;96989.03;5043825;28;20067;-57
2021/03/20 13:06:18;;;;;;;21.85;16.52;;;;;;;10.26;51.91;96973.91;5042939;28;20043;-57
2021/03/20 13:09:02;;;;;;;14.48;10.30;;;;;;;10.07;52.04;96948.25;5041872;28;20087;-60
2021/03/20 13:11:47;;;;;;;15.65;11.05;;;;;;;9.82;52.11;96920.13;5043248;28;20048;-57
2021/03/20 13:14:33;;;;;;;17.15;13.80;;;;;;;9.95;52.85;96913.25;5043608;28;20052;-57
2021/03/20 13:17:17;;;;;;;24.17;17.05;;;;;;;10.21;54.87;96982.53;5042870;28;20044;-58
2021/03/20 13:20:01;;;;;;;21.70;14.63;;;;;;;10.09;56.41;96979.94;5043144;28;20120;-58
2021/03/20 13:22:46;;;;;;;47.55;30.45;;;;;;;9.71;59.10;96930.22;5041625;28;20056;-57